Time;durP1;ratioP1;P1;durP2;ratioP2;P2;SDS_P1;SDS_P2;PMS_P1;PMS_P2;Temp;Humidity;BMP_temperature;BMP_pressure;BME280_temperature;BME280_humidity;BME280_pressure;Samples;Min_cycle;Max_cycle;Signal;HPM_P1;HPM_P2
2023/05/06 00:02:01;;;;;;;3.50;2.60;;;;;;;16.95;nan;99586.78;5040998;28;20317;-82
2023/05/06 00:04:26;;;;;;;4.00;3.65;;;;;;;17.00;nan;99579.25;5040631;28;20601;-82
2023/05/06 00:06:53;;;;;;;3.07;2.87;;;;;;;17.04;nan;99587.81;5042281;28;20214;-82
2023/05/06 00:09:18;;;;;;;4.10;3.80;;;;;;;17.05;nan;99576.19;5040409;28;20309;-82
2023/05/06 00:11:44;;;;;;;3.40;3.20;;;;;;;17.05;nan;99581.50;5042932;28;21082;-82
2023/05/06 00:14:10;;;;;;;3.72;3.42;;;;;;;17.03;nan;99581.63;5043234;28;20207;-82
2023/05/06 00:16:35;;;;;;;3.77;3.47;;;;;;;17.02;nan;99577.31;5019549;28;20215;-82
2023/05/06 00:19:00;;;;;;;6.10;3.93;;;;;;;17.02;nan;99584.44;5042549;28;20532;-82
2023/05/06 00:21:26;;;;;;;4.23;3.87;;;;;;;17.00;nan;99587.22;5042732;28;20215;-82
2023/05/06 00:23:51;;;;;;;4.93;4.00;;;;;;;16.99;nan;99585.56;5045157;28;20749;-82
2023/05/06 00:26:17;;;;;;;3.80;3.50;;;;;;;16.98;nan;99581.22;5042948;28;20291;-82
2023/05/06 00:28:42;;;;;;;4.40;4.00;;;;;;;17.02;nan;99582.63;5044859;28;20202;-82
2023/05/06 00:31:08;;;;;;;4.47;3.73;;;;;;;17.03;nan;99565.72;5029167;28;20681;-82
2023/05/06 00:33:34;;;;;;;4.47;3.50;;;;;;;16.98;nan;99554.66;5049002;28;20205;-82
2023/05/06 00:35:59;;;;;;;4.85;4.22;;;;;;;16.95;nan;99565.56;5047087;28;20631;-82
2023/05/06 00:38:24;;;;;;;5.80;3.50;;;;;;;16.89;nan;99563.47;5028232;28;20614;-82
2023/05/06 00:40:50;;;;;;;5.63;3.70;;;;;;;16.87;nan;99570.72;5049004;28;20203;-82
2023/05/06 00:43:15;;;;;;;3.90;3.20;;;;;;;16.88;nan;99580.38;5026628;28;20189;-82
2023/05/06 00:45:41;;;;;;;3.90;3.53;;;;;;;16.89;nan;99581.22;5046515;28;20569;-82
2023/05/06 00:48:06;;;;;;;3.70;3.33;;;;;;;16.87;nan;99572.56;5025007;28;20392;-82
2023/05/06 00:50:33;;;;;;;4.30;3.90;;;;;;;16.85;nan;99572.72;5023666;28;20288;-82
2023/05/06 00:53:00;;;;;;;3.90;3.58;;;;;;;16.85;nan;99569.19;5047280;28;20241;-82
2023/05/06 00:55:26;;;;;;;3.72;3.42;;;;;;;16.82;nan;99570.31;5024349;28;20605;-82
2023/05/06 00:57:52;;;;;;;3.70;3.40;;;;;;;16.78;nan;99561.81;5025057;28;20227;-82
2023/05/06 01:00:19;;;;;;;4.35;3.95;;;;;;;16.76;nan;99570.84;5023146;28;20262;-82
2023/05/06 01:02:46;;;;;;;4.40;4.10;;;;;;;16.75;nan;99575.31;5044286;28;20440;-82
2023/05/06 01:05:12;;;;;;;4.80;3.45;;;;;;;16.74;nan;99573.66;5045018;28;20571;-82
2023/05/06 01:07:47;;;;;;;3.85;3.38;;;;;;;16.74;nan;99572.78;5019887;28;20673;-82
2023/05/06 01:10:31;;;;;;;4.07;3.35;;;;;;;16.71;nan;99565.09;5018823;28;20837;-82
2023/05/06 01:13:02;;;;;;;3.75;3.03;;;;;;;16.63;nan;99575.56;5044760;28;20951;-82
2023/05/06 01:15:53;;;;;;;5.65;3.95;;;;;;;16.51;nan;99567.72;5018063;28;20201;-82
2023/05/06 01:18:21;;;;;;;4.18;3.78;;;;;;;16.49;nan;99564.38;5043238;28;20215;-82
2023/05/06 01:20:49;;;;;;;4.28;3.90;;;;;;;16.49;nan;99564.38;5045282;28;20207;-81
2023/05/06 01:23:16;;;;;;;4.13;3.72;;;;;;;16.54;nan;99570.09;5045104;28;21164;-82
2023/05/06 01:25:43;;;;;;;4.65;4.25;;;;;;;16.55;nan;99562.97;5018743;28;20196;-82
2023/05/06 01:28:10;;;;;;;4.30;3.60;;;;;;;16.51;nan;99565.09;5045552;28;20225;-82
2023/05/06 01:30:50;;;;;;;5.10;4.10;;;;;;;16.51;nan;99569.56;5045035;28;20227;-82
2023/05/06 01:33:35;;;;;;;3.50;3.20;;;;;;;16.47;nan;99560.19;5020670;28;20194;-82
2023/05/06 01:36:07;;;;;;;5.00;4.50;;;;;;;16.45;nan;99557.69;5034844;28;20880;-82
2023/05/06 01:38:49;;;;;;;4.20;3.00;;;;;;;16.46;nan;99554.03;5046112;28;20450;-81
2023/05/06 01:41:16;;;;;;;3.97;3.58;;;;;;;16.48;nan;99554.75;5025968;28;20244;-81
2023/05/06 01:43:44;;;;;;;4.05;3.75;;;;;;;16.48;nan;99557.41;5024915;28;20240;-81
2023/05/06 01:46:16;;;;;;;4.85;3.83;;;;;;;16.47;nan;99557.53;5041437;28;20623;-81
2023/05/06 01:48:44;;;;;;;4.95;3.95;;;;;;;16.47;nan;99554.88;5031147;28;20289;-80
2023/05/06 01:51:10;;;;;;;4.78;3.97;;;;;;;16.48;nan;99552.09;5016041;28;20193;-82
2023/05/06 01:53:35;;;;;;;4.33;3.93;;;;;;;16.50;nan;99559.91;5043593;28;20226;-82
2023/05/06 01:56:00;;;;;;;3.33;3.03;;;;;;;16.51;nan;99556.28;5043127;28;20223;-80
2023/05/06 01:58:26;;;;;;;5.37;3.60;;;;;;;16.53;nan;99557.00;5018568;28;20564;-81
2023/05/06 02:00:51;;;;;;;4.00;3.10;;;;;;;16.53;nan;99560.50;5044074;28;20215;-81
2023/05/06 02:03:17;;;;;;;4.40;4.00;;;;;;;16.53;nan;99562.31;5042711;28;20223;-82
2023/05/06 02:05:42;;;;;;;4.43;4.00;;;;;;;16.55;nan;99562.97;5041306;28;20407;-81
2023/05/06 02:08:08;;;;;;;3.28;2.95;;;;;;;16.47;nan;99565.47;5015309;28;20456;-81
2023/05/06 02:10:34;;;;;;;3.17;2.93;;;;;;;16.41;nan;99574.00;5018429;28;20198;-81
2023/05/06 02:13:03;;;;;;;3.80;3.53;;;;;;;16.35;nan;99573.56;5017461;28;20529;-81
2023/05/06 02:15:29;;;;;;;3.30;3.07;;;;;;;16.30;nan;99567.81;5019497;28;20212;-80
2023/05/06 02:17:56;;;;;;;3.30;3.10;;;;;;;16.27;nan;99575.22;5018388;28;20278;-81
2023/05/06 02:20:21;;;;;;;4.70;3.20;;;;;;;16.22;nan;99566.81;5042553;28;20203;-81
2023/05/06 02:22:47;;;;;;;3.97;3.67;;;;;;;16.16;nan;99565.53;5020813;28;20231;-81
2023/05/06 02:25:12;;;;;;;3.10;2.90;;;;;;;16.12;nan;99566.78;5019204;28;20661;-82
2023/05/06 02:27:37;;;;;;;3.97;3.67;;;;;;;16.12;nan;99562.34;5043883;28;23366;-81
2023/05/06 02:30:03;;;;;;;3.47;3.17;;;;;;;16.14;nan;99560.38;5042487;28;20204;-81
2023/05/06 02:32:29;;;;;;;4.13;3.73;;;;;;;16.13;nan;99566.66;5043680;28;20191;-80
2023/05/06 02:34:54;;;;;;;5.00;3.73;;;;;;;16.10;nan;99563.44;5043685;28;20698;-80
2023/05/06 02:37:21;;;;;;;4.20;3.83;;;;;;;16.09;nan;99556.44;5044001;28;20235;-81
2023/05/06 02:39:46;;;;;;;4.30;3.90;;;;;;;16.14;nan;99552.41;5042068;28;20207;-81
2023/05/06 02:42:14;;;;;;;4.30;4.00;;;;;;;16.20;nan;99560.81;5041687;28;20224;-81
2023/05/06 02:44:40;;;;;;;5.50;4.00;;;;;;;16.26;nan;99555.00;5042589;28;20588;-81
2023/05/06 02:47:05;;;;;;;6.47;4.80;;;;;;;16.33;nan;99559.59;5043879;28;20703;-82
2023/05/06 02:49:31;;;;;;;7.47;6.00;;;;;;;16.37;nan;99560.19;5041614;28;20212;-81
2023/05/06 02:51:56;;;;;;;8.10;5.50;;;;;;;16.39;nan;99552.94;5043537;28;20210;-81
2023/05/06 02:54:22;;;;;;;11.77;9.00;;;;;;;16.39;nan;99542.31;5043333;28;20208;-81
2023/05/06 02:56:47;;;;;;;11.20;6.57;;;;;;;16.34;nan;99541.91;5043242;28;20280;-81
2023/05/06 02:59:12;;;;;;;10.60;7.37;;;;;;;16.29;nan;99546.75;5022849;28;20223;-81
2023/05/06 03:01:38;;;;;;;8.60;7.00;;;;;;;16.27;nan;99538.09;5042815;28;20595;-82
2023/05/06 03:04:03;;;;;;;11.70;8.70;;;;;;;16.26;nan;99547.88;5022025;28;20543;-81
2023/05/06 03:06:30;;;;;;;8.67;6.67;;;;;;;16.25;nan;99540.88;5018420;28;20219;-81
2023/05/06 03:08:56;;;;;;;14.25;8.27;;;;;;;16.28;nan;99534.47;5039736;28;20209;-80
2023/05/06 03:11:22;;;;;;;12.02;8.25;;;;;;;16.31;nan;99539.50;5020152;28;20201;-80
2023/05/06 03:13:47;;;;;;;12.67;9.20;;;;;;;16.32;nan;99536.72;5021353;28;20200;-80
2023/05/06 03:16:13;;;;;;;10.10;8.47;;;;;;;16.29;nan;99530.84;5024457;28;20649;-80
2023/05/06 03:18:41;;;;;;;8.43;7.47;;;;;;;16.26;nan;99531.97;5017216;28;20369;-79
2023/05/06 03:21:07;;;;;;;12.10;8.00;;;;;;;16.23;nan;99528.72;5018802;28;20373;-80
2023/05/06 03:23:35;;;;;;;8.35;7.20;;;;;;;16.22;nan;99525.25;5020560;28;20464;-81
2023/05/06 03:26:00;;;;;;;8.27;7.17;;;;;;;16.22;nan;99535.84;5043594;28;20511;-79
2023/05/06 03:28:26;;;;;;;8.90;7.93;;;;;;;16.19;nan;99532.63;5021134;28;20224;-81
2023/05/06 03:30:52;;;;;;;12.45;8.27;;;;;;;16.18;nan;99539.75;5019700;28;20314;-80
2023/05/06 03:33:18;;;;;;;10.57;7.23;;;;;;;16.17;nan;99537.22;5020856;28;20207;-80
2023/05/06 03:35:43;;;;;;;12.93;8.83;;;;;;;16.20;nan;99547.56;5019314;28;20215;-80
2023/05/06 03:38:10;;;;;;;13.27;10.80;;;;;;;16.20;nan;99539.59;5040559;28;20523;-79
2023/05/06 03:40:49;;;;;;;38.17;13.10;;;;;;;16.20;nan;99542.25;5021689;28;20257;-81
2023/05/06 03:43:15;;;;;;;19.20;12.98;;;;;;;16.18;nan;99538.94;5017942;28;20549;-79
2023/05/06 03:45:42;;;;;;;19.92;14.68;;;;;;;16.15;nan;99534.72;5014905;28;20250;-78
2023/05/06 03:48:07;;;;;;;22.10;13.97;;;;;;;16.17;nan;99534.56;5020152;28;20770;-80
2023/05/06 03:50:37;;;;;;;26.58;15.70;;;;;;;16.18;nan;99538.94;5021733;28;20220;-80
2023/05/06 03:53:02;;;;;;;26.73;15.47;;;;;;;16.13;nan;99541.97;5022169;28;20560;-80
2023/05/06 03:55:30;;;;;;;21.98;14.38;;;;;;;16.11;nan;99541.25;5018220;28;20744;-81
2023/05/06 03:57:55;;;;;;;18.40;11.37;;;;;;;16.09;nan;99537.91;5020798;28;20219;-81
2023/05/06 04:00:21;;;;;;;19.53;13.83;;;;;;;16.10;nan;99540.44;5022722;28;20537;-79
2023/05/06 04:02:50;;;;;;;17.48;10.00;;;;;;;16.08;nan;99537.06;5020329;28;20267;-80
2023/05/06 04:05:22;;;;;;;18.85;10.77;;;;;;;16.07;nan;99542.53;5019507;28;20527;-81
2023/05/06 04:07:47;;;;;;;22.10;11.97;;;;;;;16.01;nan;99535.91;5033579;28;20302;-80
2023/05/06 04:10:13;;;;;;;19.13;13.20;;;;;;;15.99;nan;99537.88;5040622;28;20203;-80
2023/05/06 04:12:41;;;;;;;24.65;12.75;;;;;;;15.97;nan;99537.16;5019620;28;20200;-79
2023/05/06 04:15:07;;;;;;;18.77;12.95;;;;;;;15.97;nan;99544.28;5018465;28;20211;-78
2023/05/06 04:17:33;;;;;;;21.30;15.00;;;;;;;15.97;nan;99534.53;5021516;28;20208;-79
2023/05/06 04:20:05;;;;;;;22.00;13.30;;;;;;;15.98;nan;99538.00;5041203;28;20219;-80
2023/05/06 04:22:31;;;;;;;20.02;13.05;;;;;;;16.01;nan;99543.88;5017720;28;20575;-79
2023/05/06 04:24:59;;;;;;;18.10;12.30;;;;;;;16.04;nan;99543.63;5019223;28;20199;-80
2023/05/06 04:27:28;;;;;;;23.25;13.70;;;;;;;16.07;nan;99546.00;5014865;28;20207;-79
2023/05/06 04:29:55;;;;;;;18.67;13.50;;;;;;;16.12;nan;99542.94;5017343;28;20242;-81
2023/05/06 04:32:24;;;;;;;21.98;14.50;;;;;;;16.16;nan;99549.66;5018380;28;20535;-80
2023/05/06 04:34:52;;;;;;;20.43;13.17;;;;;;;16.20;nan;99536.94;5016276;28;20471;-81
2023/05/06 04:37:18;;;;;;;18.80;12.50;;;;;;;16.23;nan;99544.63;5020399;28;20482;-78
2023/05/06 04:39:47;;;;;;;17.52;12.55;;;;;;;16.25;nan;99543.53;5041768;28;20673;-80
2023/05/06 04:42:15;;;;;;;23.40;12.90;;;;;;;16.24;nan;99541.03;5019541;28;20215;-79
2023/05/06 04:44:48;;;;;;;19.70;11.70;;;;;;;16.20;nan;99542.25;5020512;28;20313;-79
2023/05/06 04:47:14;;;;;;;20.40;12.10;;;;;;;16.22;nan;99545.63;5040625;28;20309;-80
2023/05/06 04:49:43;;;;;;;26.80;14.68;;;;;;;16.25;nan;99548.00;5019621;28;20199;-81
2023/05/06 04:52:09;;;;;;;17.07;14.20;;;;;;;16.29;nan;99538.81;5017984;28;20202;-80
2023/05/06 04:54:34;;;;;;;20.10;12.80;;;;;;;16.29;nan;99546.75;5019200;28;20211;-80
2023/05/06 04:57:00;;;;;;;15.67;10.33;;;;;;;16.29;nan;99538.81;5016947;28;20293;-79
2023/05/06 04:59:26;;;;;;;13.48;10.23;;;;;;;16.31;nan;99531.53;5021936;28;20208;-79
2023/05/06 05:01:52;;;;;;;12.13;9.13;;;;;;;16.32;nan;99544.66;5024168;28;20338;-79
2023/05/06 05:04:18;;;;;;;12.50;9.27;;;;;;;16.32;nan;99541.19;5026531;28;20194;-78
2023/05/06 05:06:44;;;;;;;16.27;10.37;;;;;;;16.26;nan;99541.75;5019229;28;20224;-80
2023/05/06 05:09:10;;;;;;;11.75;10.00;;;;;;;16.22;nan;99540.31;5017897;28;20204;-80
2023/05/06 05:11:39;;;;;;;13.50;10.20;;;;;;;16.26;nan;99544.38;5018546;28;20252;-79
2023/05/06 05:14:04;;;;;;;13.37;9.30;;;;;;;16.31;nan;99545.66;5016930;28;20192;-80
2023/05/06 05:16:30;;;;;;;14.90;10.13;;;;;;;16.42;nan;99546.50;5023253;28;20281;-78
2023/05/06 05:18:55;;;;;;;13.33;9.57;;;;;;;16.52;nan;99540.22;5052652;28;20197;-78
2023/05/06 05:21:26;;;;;;;13.23;9.30;;;;;;;16.69;nan;99543.19;5030109;28;20396;-79
2023/05/06 05:23:53;;;;;;;11.18;10.02;;;;;;;17.03;nan;99538.34;5047153;28;20199;-81
2023/05/06 05:26:18;;;;;;;12.90;9.40;;;;;;;17.34;nan;99541.66;5019317;28;20279;-78
2023/05/06 05:28:45;;;;;;;14.13;9.20;;;;;;;17.57;nan;99541.31;5021505;28;20195;-81
2023/05/06 05:31:11;;;;;;;12.25;8.52;;;;;;;17.84;nan;99545.88;5021264;28;20608;-80
2023/05/06 05:33:37;;;;;;;10.75;8.02;;;;;;;18.14;nan;99548.25;5021827;28;20231;-79
2023/05/06 05:36:07;;;;;;;12.02;9.38;;;;;;;18.39;nan;99545.91;5019863;28;20536;-79
2023/05/06 05:38:33;;;;;;;10.13;7.68;;;;;;;18.47;nan;99547.81;5023980;28;20725;-80
2023/05/06 05:40:59;;;;;;;11.43;8.20;;;;;;;18.47;nan;99547.81;5022795;28;20255;-80
2023/05/06 05:43:25;;;;;;;8.68;7.72;;;;;;;18.40;nan;99560.03;5045199;28;20731;-81
2023/05/06 05:45:51;;;;;;;9.53;7.50;;;;;;;18.26;nan;99556.06;5020625;28;20216;-80
2023/05/06 05:48:17;;;;;;;9.10;7.00;;;;;;;18.12;nan;99560.06;5021892;28;20519;-81
2023/05/06 05:50:42;;;;;;;8.60;6.00;;;;;;;18.03;nan;99563.56;5043213;28;20950;-77
2023/05/06 05:53:08;;;;;;;12.63;7.33;;;;;;;17.94;nan;99567.13;5042936;28;20285;-79
2023/05/06 05:55:35;;;;;;;9.02;7.68;;;;;;;17.84;nan;99564.47;5021717;28;20801;-77
2023/05/06 05:58:01;;;;;;;9.67;6.40;;;;;;;17.71;nan;99554.13;5041838;28;20215;-79
2023/05/06 06:00:27;;;;;;;7.88;6.55;;;;;;;17.63;nan;99564.66;5022117;28;20197;-79
2023/05/06 06:03:00;;;;;;;8.23;6.13;;;;;;;17.57;nan;99557.25;5022712;28;20191;-78
2023/05/06 06:05:25;;;;;;;10.40;8.33;;;;;;;17.46;nan;99564.41;5042935;28;20205;-79
2023/05/06 06:07:51;;;;;;;11.07;8.77;;;;;;;17.39;nan;99565.13;5044384;28;20841;-77
2023/05/06 06:10:16;;;;;;;14.10;11.30;;;;;;;17.28;nan;99570.59;5026937;28;20206;-77
2023/05/06 06:12:43;;;;;;;12.50;9.23;;;;;;;17.15;nan;99576.22;5029091;28;20204;-78
2023/05/06 06:15:11;;;;;;;13.60;11.07;;;;;;;17.06;nan;99571.72;5029003;28;20453;-79
2023/05/06 06:17:37;;;;;;;19.02;10.13;;;;;;;17.01;nan;99578.31;5030161;28;21051;-77
2023/05/06 06:20:05;;;;;;;13.25;9.98;;;;;;;17.01;nan;99591.56;5025137;28;20277;-79
2023/05/06 06:22:31;;;;;;;15.68;10.20;;;;;;;17.02;nan;99587.09;5026404;28;20218;-79
2023/05/06 06:24:57;;;;;;;11.60;9.27;;;;;;;17.01;nan;99591.56;5021390;28;20208;-77
2023/05/06 06:27:22;;;;;;;11.43;9.30;;;;;;;17.00;nan;99595.19;5015397;28;20460;-77
2023/05/06 06:29:48;;;;;;;10.43;8.70;;;;;;;17.02;nan;99587.94;5017323;28;20504;-77
2023/05/06 06:32:14;;;;;;;14.85;10.80;;;;;;;17.05;nan;99592.13;5014646;28;20202;-79
2023/05/06 06:34:40;;;;;;;11.60;10.30;;;;;;;17.10;nan;99597.84;5040370;28;20439;-79
2023/05/06 06:37:05;;;;;;;17.73;10.60;;;;;;;17.17;nan;99595.47;5040815;28;20232;-77
2023/05/06 06:39:31;;;;;;;11.67;8.90;;;;;;;17.20;nan;99595.19;5040655;28;20205;-79
2023/05/06 06:41:57;;;;;;;11.73;10.03;;;;;;;17.22;nan;99591.41;5047509;28;20228;-79
2023/05/06 06:44:22;;;;;;;14.75;11.00;;;;;;;17.26;nan;99591.97;5042120;28;20282;-79
2023/05/06 06:46:48;;;;;;;25.57;23.27;;;;;;;17.27;nan;99593.66;5043104;28;20563;-79
2023/05/06 06:49:15;;;;;;;14.87;11.33;;;;;;;17.27;nan;99583.03;5041806;28;20285;-76
2023/05/06 06:51:40;;;;;;;16.10;10.30;;;;;;;17.19;nan;99582.91;5042679;28;20748;-76
2023/05/06 06:54:06;;;;;;;14.70;10.63;;;;;;;17.11;nan;99593.38;5042813;28;20232;-77
2023/05/06 06:56:31;;;;;;;16.63;11.63;;;;;;;17.01;nan;99583.59;5023553;28;20211;-79
2023/05/06 06:58:56;;;;;;;14.63;10.43;;;;;;;16.98;nan;99586.50;5039891;28;20206;-77
2023/05/06 07:01:22;;;;;;;17.53;10.83;;;;;;;17.03;nan;99592.25;5041006;28;20335;-78
2023/05/06 07:03:47;;;;;;;13.80;11.13;;;;;;;17.11;nan;99586.25;5040572;28;20205;-78
2023/05/06 07:06:12;;;;;;;15.60;12.07;;;;;;;17.28;nan;99583.84;5039763;28;21158;-78
2023/05/06 07:08:38;;;;;;;13.07;9.73;;;;;;;17.34;nan;99591.28;5041753;28;20349;-79
2023/05/06 07:11:04;;;;;;;15.33;10.90;;;;;;;17.37;nan;99597.13;5040441;28;20631;-79
2023/05/06 07:13:29;;;;;;;14.87;10.10;;;;;;;17.40;nan;99602.16;5041943;28;20212;-80
2023/05/06 07:15:54;;;;;;;11.07;9.90;;;;;;;17.41;nan;99600.34;5041204;28;20459;-80
2023/05/06 07:18:20;;;;;;;12.47;10.73;;;;;;;17.41;nan;99603.81;5042444;28;20223;-80
2023/05/06 07:20:45;;;;;;;13.87;9.63;;;;;;;17.38;nan;99612.06;5040420;28;20212;-79
2023/05/06 07:23:11;;;;;;;13.70;9.17;;;;;;;17.36;nan;99608.75;5041475;28;20704;-79
2023/05/06 07:25:36;;;;;;;13.30;10.50;;;;;;;17.39;nan;99610.25;5041797;28;20206;-79
2023/05/06 07:28:02;;;;;;;12.13;10.10;;;;;;;17.39;nan;99607.59;5041125;28;20207;-78
2023/05/06 07:30:27;;;;;;;13.13;9.40;;;;;;;17.39;nan;99620.88;5021034;28;20232;-81
2023/05/06 07:32:52;;;;;;;12.13;10.00;;;;;;;17.45;nan;99621.16;5040244;28;20196;-80
2023/05/06 07:35:18;;;;;;;15.40;11.27;;;;;;;17.59;nan;99613.75;5040099;28;20431;-79
2023/05/06 07:37:46;;;;;;;13.60;9.20;;;;;;;17.71;nan;99620.56;5041744;28;21379;-81
2023/05/06 07:40:12;;;;;;;14.30;10.98;;;;;;;17.80;nan;99614.44;5019227;28;20242;-82
2023/05/06 07:42:39;;;;;;;15.27;9.90;;;;;;;17.91;nan;99608.94;5042919;28;20239;-82
2023/05/06 07:45:05;;;;;;;10.80;9.00;;;;;;;18.04;nan;99615.78;5042837;28;20219;-82
2023/05/06 07:47:31;;;;;;;13.45;10.48;;;;;;;18.09;nan;99614.34;5042215;28;20459;-81
2023/05/06 07:49:57;;;;;;;14.90;9.87;;;;;;;18.12;nan;99615.88;5041813;28;20585;-81
2023/05/06 07:52:23;;;;;;;12.60;10.03;;;;;;;18.11;nan;99611.53;5019123;28;20212;-79
2023/05/06 07:54:48;;;;;;;11.43;9.07;;;;;;;18.15;nan;99610.25;5012246;28;20282;-81
2023/05/06 07:57:14;;;;;;;11.67;8.77;;;;;;;18.25;nan;99607.53;5022988;28;21538;-81
2023/05/06 07:59:41;;;;;;;10.40;9.33;;;;;;;18.32;nan;99606.81;5041661;28;20209;-81
2023/05/06 08:02:06;;;;;;;12.93;9.30;;;;;;;18.47;nan;99606.31;5041816;28;20476;-81
2023/05/06 08:04:31;;;;;;;12.53;9.07;;;;;;;18.89;nan;99603.16;5043919;28;20424;-82
2023/05/06 08:06:57;;;;;;;8.80;7.90;;;;;;;19.37;nan;99613.41;5037764;28;20699;-81
2023/05/06 08:09:22;;;;;;;9.50;8.00;;;;;;;19.76;nan;99607.72;5037270;28;20245;-81
2023/05/06 08:11:49;;;;;;;12.40;8.30;;;;;;;20.20;nan;99609.47;5039148;28;20546;-82
2023/05/06 08:14:15;;;;;;;8.40;7.60;;;;;;;20.43;nan;99609.75;5038653;28;20200;-81
2023/05/06 08:16:40;;;;;;;9.53;6.70;;;;;;;20.44;nan;99606.06;5039592;28;20467;-81
2023/05/06 08:19:06;;;;;;;8.57;7.70;;;;;;;20.37;nan;99608.56;5037633;28;20206;-81
2023/05/06 08:21:31;;;;;;;10.13;6.70;;;;;;;20.30;nan;99603.00;5035388;28;20690;-81
2023/05/06 08:23:56;;;;;;;10.70;8.93;;;;;;;20.26;nan;99607.00;5040476;28;20200;-81
2023/05/06 08:26:22;;;;;;;13.23;8.50;;;;;;;20.42;nan;99606.25;5039787;28;20209;-82
2023/05/06 08:28:47;;;;;;;8.17;6.70;;;;;;;20.77;nan;99607.06;5040817;28;20202;-81
2023/05/06 08:31:13;;;;;;;8.53;6.60;;;;;;;20.95;nan;99607.78;5035423;28;20198;-81
2023/05/06 08:33:38;;;;;;;8.30;6.80;;;;;;;20.98;nan;99601.22;5034848;28;21692;-81
2023/05/06 08:36:03;;;;;;;8.90;7.70;;;;;;;21.10;nan;99605.28;5036729;28;20423;-83
2023/05/06 08:38:29;;;;;;;7.37;6.63;;;;;;;21.40;nan;99601.13;5040207;28;20236;-80
2023/05/06 08:40:59;;;;;;;7.67;6.87;;;;;;;21.68;nan;99603.44;5039541;28;20930;-76
2023/05/06 08:43:33;;;;;;;8.00;6.37;;;;;;;21.78;nan;99598.75;5042758;28;20232;-80
2023/05/06 08:45:59;;;;;;;5.80;5.23;;;;;;;21.92;nan;99601.72;5040740;28;20501;-78
2023/05/06 08:48:24;;;;;;;9.00;4.83;;;;;;;22.09;nan;99592.66;5037653;28;20461;-79
2023/05/06 08:50:53;;;;;;;6.27;5.67;;;;;;;22.23;nan;99586.63;5042875;28;20194;-80
2023/05/06 08:53:18;;;;;;;6.50;5.40;;;;;;;22.45;nan;99585.00;5044761;28;20279;-78
2023/05/06 08:55:48;;;;;;;6.53;5.83;;;;;;;22.63;nan;99587.44;5022092;28;20541;-80
2023/05/06 08:58:15;;;;;;;7.73;6.93;;;;;;;22.86;nan;99583.94;5043956;28;20255;-79
2023/05/06 09:00:42;;;;;;;5.80;5.30;;;;;;;23.05;nan;99583.50;5045079;28;20464;-79
2023/05/06 09:03:07;;;;;;;7.70;6.20;;;;;;;23.34;nan;99579.25;5043818;28;21042;-80
2023/05/06 09:05:32;;;;;;;5.67;5.13;;;;;;;23.54;nan;99571.53;5044343;28;20441;-80
2023/05/06 09:07:58;;;;;;;5.53;5.03;;;;;;;23.53;nan;99575.25;5042926;28;20556;-79
2023/05/06 09:10:23;;;;;;;6.17;5.27;;;;;;;23.49;nan;99576.59;5043828;28;20232;-80
2023/05/06 09:12:52;;;;;;;6.33;5.47;;;;;;;23.48;nan;99570.41;5042328;28;20553;-80
2023/05/06 09:15:22;;;;;;;6.53;4.80;;;;;;;23.31;nan;99572.41;5043189;28;20263;-80
2023/05/06 09:17:48;;;;;;;6.90;4.90;;;;;;;23.22;nan;99569.97;5044011;28;20469;-79
2023/05/06 09:20:13;;;;;;;8.40;5.80;;;;;;;23.21;nan;99565.66;5042702;28;20665;-79
2023/05/06 09:22:39;;;;;;;5.23;4.73;;;;;;;23.21;nan;99560.28;5042783;28;20746;-80
2023/05/06 09:25:05;;;;;;;6.33;4.40;;;;;;;23.28;nan;99556.72;5043590;28;20228;-80
2023/05/06 09:27:33;;;;;;;8.97;4.83;;;;;;;23.46;nan;99559.03;5042729;28;20877;-80
2023/05/06 09:30:10;;;;;;;10.63;4.67;;;;;;;23.50;nan;99551.47;5045906;28;20532;-78
2023/05/06 09:32:36;;;;;;;4.53;4.13;;;;;;;23.43;nan;99556.72;5044462;28;20436;-78
2023/05/06 09:35:02;;;;;;;5.07;4.57;;;;;;;23.53;nan;99549.25;5044350;28;20432;-80
2023/05/06 09:37:28;;;;;;;5.47;4.70;;;;;;;23.59;nan;99545.84;5040620;28;20315;-79
2023/05/06 09:39:56;;;;;;;4.90;4.03;;;;;;;23.66;nan;99545.13;5045735;28;20690;-80
2023/05/06 09:42:27;;;;;;;4.73;4.33;;;;;;;23.69;nan;99534.84;5045161;28;20518;-77
2023/05/06 09:44:58;;;;;;;4.60;4.20;;;;;;;23.73;nan;99543.38;5043404;28;20451;-78
2023/05/06 09:47:25;;;;;;;6.40;5.47;;;;;;;23.55;nan;99541.03;5046893;28;20877;-79
2023/05/06 09:49:54;;;;;;;4.50;4.10;;;;;;;23.23;nan;99539.50;5044649;28;20432;-79
2023/05/06 09:52:21;;;;;;;5.75;5.20;;;;;;;23.09;nan;99539.28;5043519;28;20412;-81
2023/05/06 09:54:47;;;;;;;4.10;3.73;;;;;;;23.15;nan;99527.00;5044883;28;20196;-80
2023/05/06 09:57:15;;;;;;;4.20;3.80;;;;;;;23.26;nan;99523.88;5043500;28;20463;-80
2023/05/06 09:59:43;;;;;;;3.23;2.57;;;;;;;23.40;nan;99527.59;5045268;28;20419;-80
2023/05/06 10:02:10;;;;;;;5.90;3.80;;;;;;;23.39;nan;99518.72;5042761;28;20500;-80
2023/05/06 10:04:39;;;;;;;6.32;4.60;;;;;;;23.28;nan;99513.00;5042704;28;20510;-79
2023/05/06 10:07:07;;;;;;;4.80;4.40;;;;;;;23.18;nan;99515.91;5040111;28;20206;-80
2023/05/06 10:09:35;;;;;;;5.53;4.60;;;;;;;23.13;nan;99512.94;5024781;28;20451;-80
2023/05/06 10:12:01;;;;;;;6.00;3.70;;;;;;;23.23;nan;99508.16;5042385;28;21404;-80
2023/05/06 10:14:26;;;;;;;5.50;4.30;;;;;;;23.35;nan;99509.38;5043003;28;20455;-80
2023/05/06 10:16:53;;;;;;;3.70;3.40;;;;;;;23.48;nan;99505.25;5044434;28;20209;-79
2023/05/06 10:19:23;;;;;;;3.67;3.37;;;;;;;23.51;nan;99511.06;5046075;28;20521;-80
2023/05/06 10:21:56;;;;;;;5.10;3.97;;;;;;;23.58;nan;99498.59;5042465;28;20487;-80
2023/05/06 10:24:28;;;;;;;3.63;3.33;;;;;;;23.66;nan;99496.84;5043654;28;20522;-79
2023/05/06 10:26:55;;;;;;;3.93;3.47;;;;;;;23.70;nan;99490.91;5041425;28;20789;-80
2023/05/06 10:29:24;;;;;;;2.90;2.57;;;;;;;23.81;nan;99485.09;5043391;28;20434;-80
2023/05/06 10:31:54;;;;;;;2.97;2.57;;;;;;;23.88;nan;99485.22;5043008;28;20425;-80
2023/05/06 10:34:20;;;;;;;3.10;2.80;;;;;;;24.01;nan;99485.38;5042561;28;20422;-79
2023/05/06 10:36:49;;;;;;;3.20;2.90;;;;;;;24.00;nan;99483.69;5041117;28;20442;-79
2023/05/06 10:39:15;;;;;;;3.20;2.17;;;;;;;23.86;nan;99484.56;5044614;28;20513;-79
2023/05/06 10:41:41;;;;;;;3.27;2.53;;;;;;;23.84;nan;99481.22;5046621;28;20462;-80
2023/05/06 10:44:06;;;;;;;3.83;2.50;;;;;;;23.87;nan;99483.53;5044458;28;20517;-79
2023/05/06 10:46:55;;;;;;;2.50;2.30;;;;;;;23.85;nan;99480.22;5041500;28;20213;-80
2023/05/06 10:49:20;;;;;;;2.23;1.90;;;;;;;23.89;nan;99476.13;5043165;28;20205;-80
2023/05/06 10:52:11;;;;;;;1.63;1.53;;;;;;;24.04;nan;99481.50;5023562;28;20438;-80
2023/05/06 10:54:55;;;;;;;2.03;1.40;;;;;;;24.21;nan;99479.41;5042522;28;20465;-80
2023/05/06 10:57:25;;;;;;;1.60;1.47;;;;;;;24.40;nan;99478.81;5039951;28;20460;-80
2023/05/06 10:59:53;;;;;;;10.00;2.20;;;;;;;24.51;nan;99475.63;5043633;28;20810;-80
2023/05/06 11:02:19;;;;;;;2.03;1.80;;;;;;;24.61;nan;99474.50;5042939;28;20514;-80
2023/05/06 11:04:50;;;;;;;2.37;1.80;;;;;;;24.67;nan;99474.56;5042854;28;20472;-80
2023/05/06 11:07:21;;;;;;;2.87;2.67;;;;;;;24.59;nan;99466.63;5042512;28;20213;-80
2023/05/06 11:09:55;;;;;;;2.30;2.07;;;;;;;24.42;nan;99462.50;5040187;28;20636;-82
2023/05/06 11:12:21;;;;;;;2.13;1.93;;;;;;;24.42;nan;99466.03;5040942;28;20510;-80
2023/05/06 11:14:46;;;;;;;2.43;2.20;;;;;;;24.50;nan;99463.25;5041961;28;20527;-80
2023/05/06 11:17:29;;;;;;;2.67;1.40;;;;;;;24.54;nan;99468.22;5041701;28;20201;-80
2023/05/06 11:20:24;;;;;;;2.07;1.77;;;;;;;24.59;nan;99474.69;5041682;28;20201;-80
2023/05/06 11:22:50;;;;;;;1.50;1.40;;;;;;;24.58;nan;99464.16;5040838;28;20446;-80
2023/05/06 11:25:57;;;;;;;1.53;1.30;;;;;;;24.54;nan;99458.31;5039975;28;20440;-79
2023/05/06 11:28:22;;;;;;;1.37;1.27;;;;;;;24.40;nan;99459.19;4938293;28;20451;-81
2023/05/06 11:30:53;;;;;;;2.10;1.87;;;;;;;24.36;nan;99452.50;4939759;28;20434;-81
2023/05/06 11:33:22;;;;;;;2.90;1.90;;;;;;;24.26;nan;99450.16;4992924;28;20209;-80
2023/05/06 11:35:47;;;;;;;2.50;1.67;;;;;;;24.22;nan;99446.19;5040541;28;20864;-79
2023/05/06 11:38:13;;;;;;;1.93;1.50;;;;;;;24.26;nan;99442.09;5041932;28;20513;-80
2023/05/06 11:40:40;;;;;;;1.70;1.60;;;;;;;24.32;nan;99441.34;5042904;28;20197;-80
2023/05/06 11:43:15;;;;;;;1.70;1.60;;;;;;;24.34;nan;99446.53;5040911;28;20324;-80
2023/05/06 11:45:44;;;;;;;4.57;1.33;;;;;;;24.35;nan;99438.25;5040718;28;20444;-80